ADDS METAR Data INFO
IDs: Format: Raw Decoded Include TAF

Data at: 0044 UTC 22 Oct 2017

KAHN 212351Z 00000KT 10SM CLR 16/14 A3028 RMK AO2 SLP256 T01610144 10261 20161 53005
KAHN 212251Z 07004KT 10SM CLR 18/14 A3028 RMK AO2 SLP253 T01830144
KAHN 212151Z 09005KT 10SM CLR 23/14 A3028 RMK AO2 SLP250 T02280139
KAHN 212051Z VRB03KT 10SM CLR 24/13 A3027 RMK AO2 SLP248 T02390133 55004
KAHN 211951Z VRB06KT 10SM CLR 26/12 A3026 RMK AO2 SLP246 T02560122
KAHN 211851Z VRB04KT 10SM CLR 25/11 A3027 RMK AO2 SLP247 T02500111
KAHN 211751Z 10005KT 10SM CLR 24/12 A3028 RMK AO2 SLP252 T02440122 10250 20083 58015
KAHN 211651Z VRB04KT 10SM CLR 23/13 A3031 RMK AO2 SLP262 T02330128
KAHN 211551Z 00000KT 10SM CLR 22/13 A3032 RMK AO2 SLP265 T02170133
KAHN 211451Z 00000KT 10SM CLR 18/12 A3033 RMK AO2 SLP268 T01780122 51014
KAHN 211351Z 07003KT 10SM CLR 16/13 A3032 RMK AO2 SLP267 T01560128
KAHN 211251Z 00000KT 9SM CLR 10/10 A3031 RMK AO2 SLP264 T01000100
KAHN 211151Z AUTO 00000KT 9SM CLR 08/08 A3029 RMK AO2 SLP256 T00830078 10111 20078 53013
KAHN 211051Z AUTO 00000KT 10SM CLR 08/08 A3027 RMK AO2 SLP252 T00830083
KAHN 210951Z AUTO 07003KT 10SM CLR 08/08 A3025 RMK AO2 SLP242 T00830083
KAHN 210851Z AUTO 00000KT 10SM CLR 09/08 A3025 RMK AO2 SLP239 T00890083 53005
KAHN 210751Z AUTO 00000KT 10SM CLR 09/09 A3024 RMK AO2 SLP236 T00940089
KAHN 210651Z AUTO 00000KT 10SM CLR 11/08 A3024 RMK AO2 SLP236 T01060083
KAHN 210551Z AUTO 00000KT 10SM CLR 11/08 A3023 RMK AO2 SLP234 T01110083 10156 20100 50001
KAHN 210451Z AUTO 00000KT 10SM CLR 11/08 A3024 RMK AO2 SLP236 T01110083 402720056
KAHN 210351Z AUTO 00000KT 10SM CLR 12/09 A3024 RMK AO2 SLP238 T01170089
KAHN 210251Z AUTO 00000KT 10SM CLR 13/09 A3023 RMK AO2 SLP234 T01280094 52008
KAHN 210151Z AUTO 00000KT 10SM CLR 14/09 A3022 RMK AO2 SLP233 T01440094
KAHN 210051Z AUTO 00000KT 10SM CLR 14/09 A3021 RMK AO2 SLP232 T01440094
KAHN 202351Z 09003KT 10SM CLR 16/11 A3021 RMK AO2 SLP229 T01560111 10272 20156 53004
KAHN 202251Z 00000KT 10SM CLR 18/11 A3019 RMK AO2 SLP223 T01830106
KAHN 202151Z 00000KT 10SM CLR 24/09 A3019 RMK AO2 SLP221 T02390089
KAHN 202051Z 08004KT 10SM CLR 26/08 A3019 RMK AO2 SLP221 T02610078 56018
KAHN 201951Z 00000KT 10SM CLR 26/06 A3020 RMK AO2 SLP226 T02610056
KAHN 201851Z 00000KT 10SM CLR 26/07 A3022 RMK AO2 SLP231 T02560067
KAHN 201751Z 00000KT 10SM CLR 24/07 A3025 RMK AO2 SLP241 T02440072 10250 20067 58018
KAHN 201651Z 00000KT 10SM CLR 24/06 A3028 RMK AO2 SLP250 T02390061
KAHN 201551Z 00000KT 10SM CLR 22/07 A3030 RMK AO2 SLP257 T02170072
KAHN 201451Z 00000KT 10SM CLR 18/10 A3030 RMK AO2 SLP261 T01830100 51009
KAHN 201351Z 00000KT 10SM CLR 13/10 A3030 RMK AO2 SLP262 T01280100
KAHN 201251Z 00000KT 10SM CLR 09/08 A3029 RMK AO2 SLP258 T00890083